createdAt,value
2017-11-07T00:00:50.387Z,7.26
2017-11-07T00:01:51.795Z,7.31
2017-11-07T00:02:53.208Z,7.24
2017-11-07T00:03:54.620Z,6.83
2017-11-07T00:05:01.762Z,6.58
2017-11-07T00:06:03.179Z,6.53
2017-11-07T00:07:04.612Z,6.59
2017-11-07T00:08:06.020Z,6.83
2017-11-07T00:09:07.432Z,6.95
2017-11-07T00:10:08.846Z,6.97
2017-11-07T00:11:10.269Z,7.12
2017-11-07T00:12:11.676Z,7.09
2017-11-07T00:13:13.092Z,7.19
2017-11-07T00:14:14.506Z,6.91
2017-11-07T00:15:15.916Z,6.98
2017-11-07T00:16:17.332Z,7.07
2017-11-07T00:17:18.752Z,7.08
2017-11-07T00:18:20.166Z,7.15
2017-11-07T00:19:21.579Z,7.13
2017-11-07T00:20:23.006Z,7.20
2017-11-07T00:21:24.411Z,7.19
2017-11-07T00:22:25.822Z,7.04
2017-11-07T00:23:27.234Z,7.05
2017-11-07T00:24:28.644Z,7.08
2017-11-07T00:25:30.046Z,7.05
2017-11-07T00:26:31.461Z,7.01
2017-11-07T00:27:32.872Z,6.94
2017-11-07T00:28:34.299Z,6.73
2017-11-07T00:29:35.716Z,6.44
2017-11-07T00:30:37.131Z,6.29
2017-11-07T00:31:38.552Z,5.98
2017-11-07T00:32:39.975Z,5.98
2017-11-07T00:33:41.381Z,5.86
2017-11-07T00:34:42.783Z,5.66
2017-11-07T00:35:44.197Z,5.77
2017-11-07T00:36:45.608Z,5.83
2017-11-07T00:37:47.022Z,5.83
2017-11-07T00:38:48.443Z,5.52
2017-11-07T00:39:49.866Z,5.57
2017-11-07T00:40:51.284Z,5.60
2017-11-07T00:41:52.698Z,5.75
2017-11-07T00:42:54.103Z,5.64
2017-11-07T00:43:55.522Z,6.01
2017-11-07T00:44:56.927Z,6.28
2017-11-07T00:45:58.333Z,6.35
2017-11-07T00:46:59.822Z,6.33
2017-11-07T00:48:01.234Z,6.56
2017-11-07T00:49:02.654Z,6.56
2017-11-07T00:50:04.065Z,6.50
2017-11-07T00:51:05.484Z,6.56
2017-11-07T00:52:06.893Z,6.53
2017-11-07T00:53:08.301Z,6.22
2017-11-07T00:54:09.726Z,6.16
2017-11-07T00:55:11.136Z,6.21
2017-11-07T00:56:12.548Z,6.26
2017-11-07T00:57:13.965Z,6.26
2017-11-07T00:58:15.380Z,6.43
2017-11-07T00:59:16.792Z,6.38
2017-11-07T01:00:18.204Z,6.46
2017-11-07T01:01:19.617Z,6.43
2017-11-07T01:02:21.043Z,6.32
2017-11-07T01:03:22.450Z,6.48
2017-11-07T01:04:23.862Z,6.46
2017-11-07T01:05:25.280Z,6.19
2017-11-07T01:06:26.695Z,6.01
2017-11-07T01:07:28.104Z,6.04
2017-11-07T01:08:29.520Z,5.98
2017-11-07T01:09:30.928Z,5.85
2017-11-07T01:10:32.344Z,5.77
2017-11-07T01:11:33.759Z,5.95
2017-11-07T01:12:35.174Z,5.88
2017-11-07T01:13:36.588Z,5.56
2017-11-07T01:14:37.993Z,5.38
2017-11-07T01:15:39.403Z,5.20
2017-11-07T01:16:40.817Z,5.13
2017-11-07T01:17:42.224Z,5.02
2017-11-07T01:18:43.634Z,4.99
2017-11-07T01:19:45.067Z,4.88
2017-11-07T01:20:46.471Z,4.94
2017-11-07T01:21:47.882Z,5.19
2017-11-07T01:22:49.296Z,5.37
2017-11-07T01:23:50.709Z,5.68
2017-11-07T01:24:52.116Z,5.91
2017-11-07T01:25:53.535Z,5.74
2017-11-07T01:26:54.951Z,5.74
2017-11-07T01:27:56.360Z,5.70
2017-11-07T01:28:57.772Z,5.75
2017-11-07T01:29:59.265Z,5.53
2017-11-07T01:31:00.640Z,5.70
2017-11-07T01:32:02.042Z,5.96
2017-11-07T01:33:03.470Z,5.91
2017-11-07T01:34:04.865Z,5.64
2017-11-07T01:35:06.277Z,5.56
2017-11-07T01:36:07.691Z,5.17
2017-11-07T01:37:09.106Z,4.96
2017-11-07T01:38:10.517Z,4.79
2017-11-07T01:39:11.931Z,4.94
2017-11-07T01:40:13.345Z,5.01
2017-11-07T01:41:14.757Z,5.37
2017-11-07T01:42:16.171Z,5.60
2017-11-07T01:43:17.584Z,5.56
2017-11-07T01:44:18.995Z,5.56
2017-11-07T01:45:20.418Z,5.45
2017-11-07T01:46:21.827Z,5.55
2017-11-07T01:47:23.242Z,5.83
2017-11-07T01:48:24.669Z,5.88
2017-11-07T01:49:26.088Z,5.96
2017-11-07T01:50:27.505Z,5.83
2017-11-07T01:51:28.913Z,5.50
2017-11-07T01:52:30.317Z,5.35
2017-11-07T01:53:31.727Z,5.01
2017-11-07T01:54:33.142Z,5.01
2017-11-07T01:55:34.561Z,5.04
2017-11-07T01:56:35.970Z,5.19
2017-11-07T01:57:37.383Z,5.31
2017-11-07T01:58:38.794Z,5.32
2017-11-07T01:59:40.203Z,5.40
2017-11-07T02:00:41.692Z,5.22
2017-11-07T02:01:43.113Z,5.20
2017-11-07T02:02:44.526Z,5.10
2017-11-07T02:03:45.944Z,5.01
2017-11-07T02:04:47.359Z,5.19
2017-11-07T02:05:48.781Z,5.13
2017-11-07T02:06:50.183Z,4.95
2017-11-07T02:07:51.602Z,5.16
2017-11-07T02:08:53.033Z,5.12
2017-11-07T02:09:54.446Z,4.94
2017-11-07T02:10:55.851Z,4.80
2017-11-07T02:11:57.259Z,4.50
2017-11-07T02:12:58.677Z,4.64
2017-11-07T02:14:00.083Z,4.95
2017-11-07T02:15:01.492Z,5.13
2017-11-07T02:16:02.904Z,5.19
2017-11-07T02:17:04.319Z,5.35
2017-11-07T02:18:05.738Z,5.49
2017-11-07T02:19:07.149Z,5.68
2017-11-07T02:20:08.565Z,5.63
2017-11-07T02:21:09.978Z,5.43
2017-11-07T02:22:11.382Z,5.48
2017-11-07T02:23:12.793Z,5.46
2017-11-07T02:24:14.203Z,5.53
2017-11-07T02:25:15.626Z,5.57
2017-11-07T02:26:17.044Z,5.49
2017-11-07T02:27:18.461Z,5.46
2017-11-07T02:28:19.879Z,5.55
2017-11-07T02:29:21.280Z,5.49
2017-11-07T02:30:22.691Z,5.56
2017-11-07T02:31:24.109Z,5.46
2017-11-07T02:32:25.616Z,5.56
2017-11-07T02:33:27.029Z,5.52
2017-11-07T02:34:28.441Z,5.50
2017-11-07T02:35:29.848Z,5.38
2017-11-07T02:36:31.261Z,5.41
2017-11-07T02:37:32.662Z,5.48
2017-11-07T02:38:34.125Z,5.43
2017-11-07T02:39:35.530Z,5.37
2017-11-07T02:40:36.937Z,5.31
2017-11-07T02:41:38.348Z,5.40
2017-11-07T02:42:39.762Z,5.46
2017-11-07T02:43:41.173Z,5.40
2017-11-07T02:44:42.584Z,5.31
2017-11-07T02:45:43.992Z,5.41
2017-11-07T02:46:45.402Z,5.37
2017-11-07T02:47:46.810Z,5.48
2017-11-07T02:48:48.235Z,5.32
2017-11-07T02:49:49.642Z,5.48
2017-11-07T02:50:51.042Z,5.41
2017-11-07T02:51:52.452Z,5.30
2017-11-07T02:52:53.862Z,4.99
2017-11-07T02:53:55.271Z,4.89
2017-11-07T02:54:56.685Z,4.88
2017-11-07T02:55:58.139Z,4.69
2017-11-07T02:56:59.552Z,4.65
2017-11-07T02:58:00.970Z,4.84
2017-11-07T02:59:02.383Z,4.91
2017-11-07T03:00:03.804Z,4.83
2017-11-07T03:01:05.224Z,4.84
2017-11-07T03:02:06.635Z,5.04
2017-11-07T03:03:08.092Z,5.34
2017-11-07T03:04:09.506Z,5.12
2017-11-07T03:05:10.923Z,5.01
2017-11-07T03:06:12.338Z,4.79
2017-11-07T03:07:13.749Z,4.55
2017-11-07T03:08:15.174Z,4.69
2017-11-07T03:09:16.591Z,4.57
2017-11-07T03:10:18.110Z,4.43
2017-11-07T03:11:19.523Z,4.47
2017-11-07T03:12:20.940Z,4.57
2017-11-07T03:13:22.351Z,4.43
2017-11-07T03:14:23.765Z,4.37
2017-11-07T03:15:25.182Z,4.33
2017-11-07T03:16:26.677Z,4.44
2017-11-07T03:17:28.086Z,4.44
2017-11-07T03:18:29.507Z,4.75
2017-11-07T03:19:30.922Z,5.04
2017-11-07T03:20:32.336Z,5.01
2017-11-07T03:21:33.746Z,4.64
2017-11-07T03:22:35.157Z,4.77
2017-11-07T03:23:36.568Z,4.61
2017-11-07T03:24:37.981Z,4.36
2017-11-07T03:25:39.393Z,4.52
2017-11-07T03:26:40.804Z,4.37
2017-11-07T03:27:42.225Z,4.42
2017-11-07T03:28:43.644Z,4.36
2017-11-07T03:29:45.059Z,4.28
2017-11-07T03:30:46.470Z,4.39
2017-11-07T03:31:47.884Z,4.47
2017-11-07T03:32:49.296Z,4.44
2017-11-07T03:33:50.713Z,4.42
2017-11-07T03:34:52.087Z,4.46
2017-11-07T03:35:53.502Z,4.37
2017-11-07T03:36:54.915Z,4.40
2017-11-07T03:37:56.328Z,4.33
2017-11-07T03:38:57.744Z,4.28
2017-11-07T03:39:59.157Z,4.43
2017-11-07T03:41:00.597Z,4.64
2017-11-07T03:42:02.006Z,4.69
2017-11-07T03:43:03.424Z,4.58
2017-11-07T03:44:04.836Z,4.57
2017-11-07T03:45:06.260Z,4.70
2017-11-07T03:46:07.674Z,4.64
2017-11-07T03:47:09.082Z,4.37
2017-11-07T03:48:10.498Z,4.43
2017-11-07T03:49:11.904Z,4.62
2017-11-07T03:50:13.316Z,4.70
2017-11-07T03:51:14.736Z,4.98
2017-11-07T03:52:16.147Z,5.10
2017-11-07T03:53:17.558Z,5.17
2017-11-07T03:54:18.980Z,5.04
2017-11-07T03:55:20.389Z,5.17
2017-11-07T03:56:21.804Z,5.22
2017-11-07T03:57:23.214Z,5.17
2017-11-07T03:58:24.623Z,5.23
2017-11-07T03:59:26.037Z,5.16
2017-11-07T04:00:27.448Z,4.86
2017-11-07T04:01:28.853Z,4.89
2017-11-07T04:02:30.272Z,5.09
2017-11-07T04:03:31.684Z,5.14
2017-11-07T04:04:33.097Z,5.19
2017-11-07T04:05:34.515Z,5.40
2017-11-07T04:06:35.932Z,5.52
2017-11-07T04:07:37.357Z,5.56
2017-11-07T04:08:38.776Z,5.52
2017-11-07T04:09:40.190Z,5.07
2017-11-07T04:10:41.603Z,5.27
2017-11-07T04:11:43.022Z,5.45
2017-11-07T04:12:44.446Z,5.31
2017-11-07T04:13:45.856Z,5.05
2017-11-07T04:14:47.265Z,5.07
2017-11-07T04:15:48.676Z,5.07
2017-11-07T04:16:50.097Z,5.27
2017-11-07T04:17:51.508Z,5.38
2017-11-07T04:18:52.918Z,5.13
2017-11-07T04:19:54.335Z,4.91
2017-11-07T04:20:55.745Z,5.07
2017-11-07T04:21:57.120Z,5.02
2017-11-07T04:22:58.533Z,5.19
2017-11-07T04:24:00.046Z,5.19
2017-11-07T04:25:01.454Z,4.95
2017-11-07T04:26:02.867Z,4.99
2017-11-07T04:27:04.285Z,5.14
2017-11-07T04:28:05.695Z,5.31
2017-11-07T04:29:07.106Z,5.43
2017-11-07T04:30:08.522Z,5.57
2017-11-07T04:31:09.941Z,5.55
2017-11-07T04:32:11.348Z,5.59
2017-11-07T04:33:12.760Z,5.64
2017-11-07T04:34:14.168Z,5.50
2017-11-07T04:35:15.584Z,5.73
2017-11-07T04:36:16.991Z,5.81
2017-11-07T04:37:18.407Z,5.86
2017-11-07T04:38:19.820Z,5.45
2017-11-07T04:39:21.230Z,5.20
2017-11-07T04:40:22.646Z,5.38
2017-11-07T04:41:24.053Z,5.28
2017-11-07T04:42:25.464Z,5.45
2017-11-07T04:43:26.874Z,5.57
2017-11-07T04:44:28.286Z,5.75
2017-11-07T04:45:29.691Z,5.74
2017-11-07T04:46:31.098Z,5.74
2017-11-07T04:47:32.510Z,5.67
2017-11-07T04:48:33.936Z,5.49
2017-11-07T04:49:35.351Z,5.38
2017-11-07T04:50:36.757Z,5.48
2017-11-07T04:51:38.173Z,5.43
2017-11-07T04:52:39.589Z,5.48
2017-11-07T04:53:40.995Z,5.52
2017-11-07T04:54:42.414Z,5.63
2017-11-07T04:55:43.836Z,5.30
2017-11-07T04:56:45.242Z,5.22
2017-11-07T04:57:46.654Z,5.35
2017-11-07T04:58:48.080Z,5.32
2017-11-07T04:59:49.493Z,5.35
2017-11-07T05:00:50.915Z,5.45
2017-11-07T05:01:53.265Z,5.38
2017-11-07T05:02:54.689Z,5.34
2017-11-07T05:03:56.099Z,5.27
2017-11-07T05:04:57.517Z,5.40
2017-11-07T05:05:58.938Z,5.50
2017-11-07T05:07:00.353Z,5.64
2017-11-07T05:08:01.769Z,5.60
2017-11-07T05:09:03.179Z,5.56
2017-11-07T05:10:04.588Z,5.70
2017-11-07T05:11:06.011Z,5.53
2017-11-07T05:12:07.424Z,5.60
2017-11-07T05:13:08.856Z,5.77
2017-11-07T05:14:10.261Z,5.60
2017-11-07T05:15:11.670Z,5.57
2017-11-07T05:16:13.084Z,5.64
2017-11-07T05:17:14.492Z,5.52
2017-11-07T05:18:15.901Z,5.59
2017-11-07T05:19:17.319Z,5.67
2017-11-07T05:20:18.737Z,5.73
2017-11-07T05:21:20.144Z,5.86
2017-11-07T05:22:21.557Z,5.55
2017-11-07T05:23:22.964Z,5.55
2017-11-07T05:24:24.375Z,5.59
2017-11-07T05:25:25.780Z,5.83
2017-11-07T05:26:27.186Z,5.78
2017-11-07T05:27:28.602Z,5.67
2017-11-07T05:28:30.020Z,5.82
2017-11-07T05:29:31.427Z,5.71
2017-11-07T05:30:32.835Z,5.70
2017-11-07T05:31:34.345Z,5.71
2017-11-07T05:32:35.760Z,5.75
2017-11-07T05:33:37.176Z,5.59
2017-11-07T05:34:38.582Z,5.60
2017-11-07T05:35:40.000Z,5.49
2017-11-07T05:36:41.401Z,5.49
2017-11-07T05:37:42.821Z,5.12
2017-11-07T05:38:44.237Z,5.32
2017-11-07T05:39:45.647Z,5.48
2017-11-07T05:40:47.060Z,5.63
2017-11-07T05:41:48.480Z,5.45
2017-11-07T05:42:49.892Z,5.38
2017-11-07T05:43:51.308Z,5.40
2017-11-07T05:44:52.722Z,5.60
2017-11-07T05:45:54.129Z,5.55
2017-11-07T05:46:55.546Z,5.49
2017-11-07T05:47:56.968Z,5.43
2017-11-07T05:48:58.380Z,5.57
2017-11-07T05:49:59.801Z,5.64
2017-11-07T05:51:01.214Z,5.68
2017-11-07T05:52:02.626Z,5.73
2017-11-07T05:53:04.080Z,5.89
2017-11-07T05:54:05.493Z,5.77
2017-11-07T05:55:06.897Z,5.81
2017-11-07T05:56:08.311Z,5.66
2017-11-07T05:57:09.850Z,5.86
2017-11-07T05:58:11.256Z,5.86
2017-11-07T05:59:12.668Z,5.83
2017-11-07T06:00:14.072Z,5.86
2017-11-07T06:01:15.492Z,5.86
2017-11-07T06:02:16.907Z,5.88
2017-11-07T06:03:18.276Z,6.00
2017-11-07T06:04:19.682Z,5.89
2017-11-07T06:05:21.092Z,6.00
2017-11-07T06:06:22.504Z,5.78
2017-11-07T06:07:23.963Z,5.81
2017-11-07T06:08:25.359Z,6.04
2017-11-07T06:09:26.849Z,6.06
2017-11-07T06:10:28.261Z,6.09
2017-11-07T06:11:29.674Z,6.06
2017-11-07T06:12:31.086Z,5.98
2017-11-07T06:13:32.499Z,6.00
2017-11-07T06:14:33.910Z,6.09
2017-11-07T06:15:35.323Z,5.95
2017-11-07T06:16:36.734Z,5.93
2017-11-07T06:17:38.142Z,5.75
2017-11-07T06:18:39.553Z,5.91
2017-11-07T06:19:40.970Z,5.91
2017-11-07T06:20:42.383Z,6.00
2017-11-07T06:21:43.793Z,6.03
2017-11-07T06:22:45.211Z,5.98
2017-11-07T06:23:46.619Z,6.04
2017-11-07T06:24:48.036Z,6.03
2017-11-07T06:25:49.447Z,5.98
2017-11-07T06:26:50.869Z,6.04
2017-11-07T06:27:52.277Z,5.95
2017-11-07T06:28:53.687Z,6.00
2017-11-07T06:29:55.097Z,5.91
2017-11-07T06:30:56.519Z,5.78
2017-11-07T06:31:57.937Z,5.74
2017-11-07T06:32:59.350Z,5.59
2017-11-07T06:34:00.770Z,5.70
2017-11-07T06:35:02.179Z,5.83
2017-11-07T06:36:03.592Z,6.03
2017-11-07T06:37:05.002Z,6.04
2017-11-07T06:38:06.416Z,6.07
2017-11-07T06:39:07.833Z,5.73
2017-11-07T06:40:09.314Z,5.81
2017-11-07T06:41:10.723Z,5.83
2017-11-07T06:42:12.136Z,5.96
2017-11-07T06:43:13.550Z,6.03
2017-11-07T06:44:14.916Z,6.09
2017-11-07T06:45:16.324Z,6.07
2017-11-07T06:46:17.731Z,6.00
2017-11-07T06:47:19.148Z,6.10
2017-11-07T06:48:20.574Z,5.98
2017-11-07T06:49:21.998Z,5.96
2017-11-07T06:50:23.410Z,6.00
2017-11-07T06:51:24.820Z,6.01
2017-11-07T06:52:26.237Z,5.71
2017-11-07T06:53:27.648Z,5.85
2017-11-07T06:54:29.061Z,5.92
2017-11-07T06:55:30.480Z,5.81
2017-11-07T06:56:31.892Z,5.68
2017-11-07T06:57:33.299Z,5.75
2017-11-07T06:58:34.714Z,5.70
2017-11-07T06:59:36.129Z,5.86
2017-11-07T07:00:37.542Z,6.00
2017-11-07T07:01:38.952Z,6.14
2017-11-07T07:02:40.371Z,6.10
2017-11-07T07:03:41.780Z,6.14
2017-11-07T07:04:43.198Z,6.09
2017-11-07T07:05:44.617Z,6.09
2017-11-07T07:06:46.040Z,6.26
2017-11-07T07:07:47.458Z,6.19
2017-11-07T07:08:48.868Z,6.09
2017-11-07T07:09:50.283Z,6.04
2017-11-07T07:10:51.755Z,6.06
2017-11-07T07:11:53.167Z,6.09
2017-11-07T07:12:54.579Z,6.16
2017-11-07T07:13:56.003Z,6.19
2017-11-07T07:14:57.406Z,6.30
2017-11-07T07:15:58.830Z,6.25
2017-11-07T07:17:00.244Z,6.06
2017-11-07T07:18:01.670Z,6.29
2017-11-07T07:19:03.085Z,6.22
2017-11-07T07:20:04.502Z,6.10
2017-11-07T07:21:05.916Z,6.10
2017-11-07T07:22:07.337Z,6.11
2017-11-07T07:23:08.738Z,6.30
2017-11-07T07:24:10.158Z,6.11
2017-11-07T07:25:11.574Z,5.86
2017-11-07T07:26:12.987Z,5.95
2017-11-07T07:27:14.396Z,6.04
2017-11-07T07:28:15.808Z,6.06
2017-11-07T07:29:17.220Z,6.03
2017-11-07T07:30:18.668Z,6.07
2017-11-07T07:31:20.076Z,6.19
2017-11-07T07:32:21.485Z,6.09
2017-11-07T07:33:22.898Z,6.16
2017-11-07T07:34:24.324Z,6.11
2017-11-07T07:35:25.737Z,6.09
2017-11-07T07:36:27.146Z,6.07
2017-11-07T07:37:28.558Z,6.29
2017-11-07T07:38:29.990Z,6.11
2017-11-07T07:39:31.420Z,6.04
2017-11-07T07:40:32.842Z,6.26
2017-11-07T07:41:34.254Z,6.36
2017-11-07T07:42:35.668Z,6.18
2017-11-07T07:43:37.090Z,6.11
2017-11-07T07:44:38.500Z,6.36
2017-11-07T07:45:39.910Z,6.32
2017-11-07T07:46:41.322Z,6.32
2017-11-07T07:47:42.729Z,5.95
2017-11-07T07:48:44.146Z,6.11
2017-11-07T07:49:45.568Z,6.07
2017-11-07T07:50:46.980Z,5.85
2017-11-07T07:51:48.406Z,5.71
2017-11-07T07:52:49.826Z,5.60
2017-11-07T07:53:51.244Z,5.70
2017-11-07T07:54:52.654Z,5.82
2017-11-07T07:55:54.091Z,6.00
2017-11-07T07:56:55.506Z,6.22
2017-11-07T07:57:56.932Z,6.35
2017-11-07T07:58:58.338Z,6.29
2017-11-07T07:59:59.746Z,6.13
2017-11-07T08:01:01.166Z,6.50
2017-11-07T08:02:02.578Z,6.58
2017-11-07T08:03:03.985Z,6.53
2017-11-07T08:04:05.410Z,6.44
2017-11-07T08:05:06.827Z,6.33
2017-11-07T08:06:08.237Z,6.29
2017-11-07T08:07:09.647Z,6.44
2017-11-07T08:08:11.029Z,6.54
2017-11-07T08:09:12.455Z,6.65
2017-11-07T08:10:13.877Z,6.68
2017-11-07T08:11:15.287Z,6.71
2017-11-07T08:12:16.719Z,6.50
2017-11-07T08:13:18.160Z,6.44
2017-11-07T08:14:19.573Z,6.14
2017-11-07T08:15:20.994Z,6.44
2017-11-07T08:16:22.407Z,6.68
2017-11-07T08:17:23.816Z,6.76
2017-11-07T08:18:25.236Z,6.81
2017-11-07T08:19:26.700Z,6.58
2017-11-07T08:20:28.115Z,6.43
2017-11-07T08:21:29.536Z,6.58
2017-11-07T08:22:30.953Z,6.72
2017-11-07T08:23:32.362Z,6.79
2017-11-07T08:24:33.773Z,6.77
2017-11-07T08:25:35.146Z,6.80
2017-11-07T08:26:36.552Z,6.63
2017-11-07T08:27:37.973Z,6.61
2017-11-07T08:28:39.377Z,6.73
2017-11-07T08:29:40.784Z,6.77
2017-11-07T08:30:42.204Z,6.81
2017-11-07T08:31:43.621Z,6.71
2017-11-07T08:32:45.029Z,6.61
2017-11-07T08:33:46.438Z,6.77
2017-11-07T08:34:47.854Z,6.51
2017-11-07T08:35:49.275Z,6.80
2017-11-07T08:36:50.694Z,6.91
2017-11-07T08:37:52.102Z,7.01
2017-11-07T08:38:53.519Z,7.13
2017-11-07T08:39:54.939Z,6.77
2017-11-07T08:40:56.349Z,6.77
2017-11-07T08:41:57.765Z,6.89
2017-11-07T08:42:59.178Z,6.83
2017-11-07T08:44:00.595Z,6.94
2017-11-07T08:45:02.006Z,6.90
2017-11-07T08:46:03.426Z,6.95
2017-11-07T08:47:04.833Z,7.02
2017-11-07T08:48:06.244Z,6.90
2017-11-07T08:49:07.664Z,6.81
2017-11-07T08:50:09.077Z,6.69
2017-11-07T08:51:10.489Z,6.79
2017-11-07T08:52:11.905Z,6.81
2017-11-07T08:53:13.322Z,6.77
2017-11-07T08:54:14.734Z,6.53
2017-11-07T08:55:16.159Z,6.68
2017-11-07T08:56:17.594Z,6.72
2017-11-07T08:57:18.999Z,6.76
2017-11-07T08:58:20.413Z,6.91
2017-11-07T08:59:21.824Z,7.23
2017-11-07T09:00:23.244Z,7.17
2017-11-07T09:01:24.656Z,7.32
2017-11-07T09:02:26.125Z,7.35
2017-11-07T09:03:27.544Z,7.37
2017-11-07T09:04:28.953Z,7.41
2017-11-07T09:05:30.378Z,7.35
2017-11-07T09:06:31.797Z,7.52
2017-11-07T09:07:33.219Z,7.55
2017-11-07T09:08:34.643Z,7.41
2017-11-07T09:09:36.081Z,7.49
2017-11-07T09:10:37.506Z,7.49
2017-11-07T09:11:38.915Z,7.42
2017-11-07T09:12:40.343Z,7.52
2017-11-07T09:13:41.742Z,7.52
2017-11-07T09:14:43.170Z,7.22
2017-11-07T09:15:44.581Z,7.17
2017-11-07T09:16:45.999Z,7.31
2017-11-07T09:17:47.408Z,7.38
2017-11-07T09:18:48.822Z,7.52
2017-11-07T09:19:50.240Z,7.56
2017-11-07T09:20:51.664Z,7.62
2017-11-07T09:21:53.091Z,7.58
2017-11-07T09:22:54.502Z,7.42
2017-11-07T09:23:55.916Z,7.53
2017-11-07T09:24:57.335Z,7.55
2017-11-07T09:25:58.755Z,7.49
2017-11-07T09:27:00.165Z,7.23
2017-11-07T09:28:01.585Z,7.56
2017-11-07T09:29:03.004Z,7.47
2017-11-07T09:30:04.419Z,7.59
2017-11-07T09:31:05.830Z,7.56
2017-11-07T09:32:07.245Z,7.38
2017-11-07T09:33:08.673Z,7.59
2017-11-07T09:34:10.084Z,7.60
2017-11-07T09:35:11.499Z,7.63
2017-11-07T09:36:12.922Z,7.59
2017-11-07T09:37:14.350Z,7.75
2017-11-07T09:38:15.772Z,7.58
2017-11-07T09:39:17.190Z,7.59
2017-11-07T09:40:18.616Z,7.49
2017-11-07T09:41:20.032Z,7.53
2017-11-07T09:42:21.446Z,7.49
2017-11-07T09:43:22.858Z,7.59
2017-11-07T09:44:24.278Z,7.60
2017-11-07T09:45:25.685Z,7.62
2017-11-07T09:46:27.110Z,7.59
2017-11-07T09:47:28.575Z,7.78
2017-11-07T09:48:30.001Z,7.74
2017-11-07T09:49:31.422Z,7.87
2017-11-07T09:50:32.833Z,7.99
2017-11-07T09:51:34.246Z,7.90
2017-11-07T09:52:35.665Z,8.00
2017-11-07T09:53:37.098Z,7.85
2017-11-07T09:54:38.502Z,7.94
2017-11-07T09:55:39.924Z,8.00
2017-11-07T09:56:41.357Z,8.15
2017-11-07T09:57:42.768Z,8.21
2017-11-07T09:58:44.184Z,8.20
2017-11-07T09:59:45.612Z,8.28
2017-11-07T10:00:47.014Z,7.99
2017-11-07T10:01:48.429Z,8.32
2017-11-07T10:02:49.835Z,8.35
2017-11-07T10:03:51.251Z,8.55
2017-11-07T10:04:52.670Z,8.54
2017-11-07T10:05:54.089Z,8.40
2017-11-07T10:06:55.512Z,8.47
2017-11-07T10:07:56.927Z,8.33
2017-11-07T10:08:58.349Z,8.39
2017-11-07T10:09:59.772Z,8.50
2017-11-07T10:11:01.183Z,8.65
2017-11-07T10:12:02.607Z,8.69
2017-11-07T10:13:04.025Z,8.66
2017-11-07T10:14:05.441Z,8.66
2017-11-07T10:15:06.859Z,8.42
2017-11-07T10:16:08.274Z,8.32
2017-11-07T10:17:09.687Z,8.12
2017-11-07T10:18:11.105Z,8.15
2017-11-07T10:19:12.520Z,8.21
2017-11-07T10:20:13.950Z,8.30
2017-11-07T10:21:15.367Z,8.18
2017-11-07T10:22:16.787Z,8.11
2017-11-07T10:23:18.214Z,8.36
2017-11-07T10:24:19.634Z,8.37
2017-11-07T10:25:21.062Z,8.36
2017-11-07T10:26:22.481Z,8.03
2017-11-07T10:27:23.904Z,8.20
2017-11-07T10:28:25.321Z,8.45
2017-11-07T10:29:26.737Z,8.60
2017-11-07T10:30:28.149Z,8.65
2017-11-07T10:31:29.574Z,8.69
2017-11-07T10:32:30.996Z,8.66
2017-11-07T10:33:32.429Z,8.71
2017-11-07T10:34:33.841Z,8.63
2017-11-07T10:35:35.266Z,8.91
2017-11-07T10:36:36.689Z,9.09
2017-11-07T10:37:38.119Z,9.04
2017-11-07T10:38:39.537Z,8.87
2017-11-07T10:39:40.961Z,8.90
2017-11-07T10:40:42.378Z,8.81
2017-11-07T10:41:43.794Z,8.75
2017-11-07T10:42:45.208Z,8.69
2017-11-07T10:43:46.639Z,8.88
2017-11-07T10:44:48.052Z,9.04
2017-11-07T10:45:49.468Z,9.28
2017-11-07T10:46:50.887Z,9.23
2017-11-07T10:47:52.304Z,9.20
2017-11-07T10:48:53.727Z,9.45
2017-11-07T10:49:55.145Z,9.42
2017-11-07T10:50:56.565Z,9.23
2017-11-07T10:51:57.983Z,9.12
2017-11-07T10:52:59.391Z,9.12
2017-11-07T10:54:00.817Z,9.13
2017-11-07T10:55:02.235Z,8.96
2017-11-07T10:56:03.648Z,8.79
2017-11-07T10:57:05.072Z,8.79
2017-11-07T10:58:06.489Z,8.83
2017-11-07T10:59:07.908Z,8.87
2017-11-07T11:00:09.338Z,9.10
2017-11-07T11:01:10.757Z,9.49
2017-11-07T11:02:12.181Z,9.64
2017-11-07T11:03:13.645Z,9.53
2017-11-07T11:04:15.057Z,9.58
2017-11-07T11:05:16.482Z,9.83
2017-11-07T11:06:17.907Z,9.88
2017-11-07T11:07:19.330Z,9.79
2017-11-07T11:08:20.730Z,9.64
2017-11-07T11:09:22.161Z,10.00
2017-11-07T11:10:23.624Z,10.10
2017-11-07T11:11:25.044Z,10.14
2017-11-07T11:12:26.467Z,9.79
2017-11-07T11:13:27.889Z,9.68
2017-11-07T11:14:29.306Z,9.70
2017-11-07T11:15:30.721Z,9.53
2017-11-07T11:16:32.135Z,9.63
2017-11-07T11:17:33.556Z,9.52
2017-11-07T11:18:34.976Z,9.52
2017-11-07T11:19:36.396Z,9.76
2017-11-07T11:20:37.815Z,10.04
2017-11-07T11:21:39.231Z,9.99
2017-11-07T11:22:40.665Z,9.73
2017-11-07T11:23:42.095Z,9.73
2017-11-07T11:24:43.514Z,9.89
2017-11-07T11:25:44.937Z,9.52
2017-11-07T11:26:46.354Z,9.39
2017-11-07T11:27:47.778Z,9.16
2017-11-07T11:28:49.196Z,9.48
2017-11-07T11:29:50.617Z,9.38
2017-11-07T11:30:52.039Z,9.64
2017-11-07T11:31:53.465Z,9.94
2017-11-07T11:32:54.871Z,9.85
2017-11-07T11:33:56.306Z,9.85
2017-11-07T11:34:57.718Z,9.71
2017-11-07T11:35:59.140Z,9.78
2017-11-07T11:37:00.565Z,9.96
2017-11-07T11:38:01.978Z,9.94
2017-11-07T11:39:03.400Z,10.32
2017-11-07T11:40:04.829Z,10.26
2017-11-07T11:41:06.250Z,10.17
2017-11-07T11:42:07.667Z,10.42
2017-11-07T11:43:09.087Z,10.24
2017-11-07T11:44:10.509Z,10.19
2017-11-07T11:45:11.938Z,10.10
2017-11-07T11:46:13.369Z,10.01
2017-11-07T11:47:17.040Z,10.47
2017-11-07T11:48:18.464Z,10.78
2017-11-07T11:49:19.891Z,10.76
2017-11-07T11:50:21.319Z,10.78
2017-11-07T11:51:22.739Z,10.74
2017-11-07T11:52:24.161Z,10.56
2017-11-07T11:53:25.588Z,10.55
2017-11-07T11:54:26.996Z,10.51
2017-11-07T11:55:28.410Z,10.60
2017-11-07T11:56:29.838Z,10.56
2017-11-07T11:57:31.258Z,10.71
2017-11-07T11:58:32.682Z,10.59
2017-11-07T11:59:34.093Z,10.59
2017-11-07T12:00:35.507Z,10.59
2017-11-07T12:01:36.926Z,10.58
2017-11-07T12:02:38.343Z,10.40
2017-11-07T12:03:39.765Z,10.40
2017-11-07T12:04:41.188Z,10.33
2017-11-07T12:05:42.608Z,10.43
2017-11-07T12:06:44.079Z,10.43
2017-11-07T12:07:45.501Z,10.78
2017-11-07T12:08:46.917Z,11.03
2017-11-07T12:09:48.338Z,11.28
2017-11-07T12:10:49.773Z,11.34
2017-11-07T12:11:51.187Z,11.50
2017-11-07T12:12:52.606Z,11.72
2017-11-07T12:13:54.028Z,11.97
2017-11-07T12:14:55.459Z,12.44
2017-11-07T12:15:56.876Z,12.66
2017-11-07T12:16:58.306Z,12.88
2017-11-07T12:17:59.731Z,12.97
2017-11-07T12:19:01.149Z,13.29
2017-11-07T12:20:02.584Z,13.81
2017-11-07T12:21:04.007Z,15.36
2017-11-07T12:22:05.424Z,18.06
2017-11-07T12:23:06.910Z,20.35
2017-11-07T12:24:08.331Z,21.57
2017-11-07T12:25:09.758Z,22.29
2017-11-07T12:26:11.165Z,23.22
2017-11-07T12:27:12.596Z,24.08
2017-11-07T12:28:14.026Z,24.22
2017-11-07T12:29:15.454Z,23.98
2017-11-07T12:30:16.879Z,25.12
2017-11-07T12:31:18.290Z,25.89
2017-11-07T12:32:19.715Z,25.79
2017-11-07T12:33:21.139Z,25.82
2017-11-07T12:34:22.562Z,26.15
2017-11-07T12:35:23.989Z,26.02
2017-11-07T12:36:25.412Z,26.01
2017-11-07T12:37:26.846Z,25.82
2017-11-07T12:38:28.268Z,26.31
2017-11-07T12:39:29.700Z,26.18
2017-11-07T12:40:31.121Z,26.02
2017-11-07T12:41:32.549Z,26.46
2017-11-07T12:42:33.981Z,26.36
2017-11-07T12:43:35.401Z,26.86
2017-11-07T12:44:36.828Z,26.52
2017-11-07T12:45:38.249Z,24.10
2017-11-07T12:46:39.668Z,21.45
2017-11-07T12:47:41.089Z,18.87
2017-11-07T12:48:42.518Z,17.70
2017-11-07T12:49:43.948Z,16.50
2017-11-07T12:50:45.373Z,16.01
2017-11-07T12:51:46.795Z,15.21
2017-11-07T12:52:48.215Z,14.47
2017-11-07T12:53:49.639Z,14.32
2017-11-07T12:54:51.057Z,13.69
2017-11-07T12:55:52.477Z,13.21
2017-11-07T12:56:53.896Z,12.95
2017-11-07T12:57:55.316Z,12.89
2017-11-07T12:58:56.761Z,12.46
2017-11-07T12:59:58.189Z,12.31
2017-11-07T13:00:59.606Z,12.19
2017-11-07T13:02:01.020Z,12.16
2017-11-07T13:03:02.449Z,11.85
2017-11-07T13:04:03.876Z,11.77
2017-11-07T13:05:05.286Z,11.75
2017-11-07T13:06:06.706Z,11.65
2017-11-07T13:07:08.124Z,11.39
2017-11-07T13:08:09.545Z,11.36
2017-11-07T13:09:10.966Z,11.29
2017-11-07T13:10:12.395Z,11.36
2017-11-07T13:11:13.813Z,11.44
2017-11-07T13:12:15.237Z,11.31
2017-11-07T13:13:16.662Z,11.41
2017-11-07T13:14:18.082Z,11.25
2017-11-07T13:15:19.489Z,11.32
2017-11-07T13:16:20.900Z,11.28
2017-11-07T13:17:22.327Z,11.32
2017-11-07T13:18:23.748Z,11.32
2017-11-07T13:19:25.168Z,11.17
2017-11-07T13:20:26.590Z,11.11
2017-11-07T13:21:28.021Z,11.11
2017-11-07T13:22:29.436Z,11.16
2017-11-07T13:23:30.850Z,11.10
2017-11-07T13:24:32.269Z,10.95
2017-11-07T13:25:33.681Z,11.11
2017-11-07T13:26:35.110Z,11.14
2017-11-07T13:27:36.535Z,11.06
2017-11-07T13:28:37.963Z,11.06
2017-11-07T13:29:39.339Z,10.88
2017-11-07T13:30:40.754Z,10.94
2017-11-07T13:31:42.169Z,10.95
2017-11-07T13:32:43.585Z,10.89
2017-11-07T13:33:45.003Z,10.91